sensor_id;sensor_type;location;lat;lon;timestamp;P1;durP1;ratioP1;P2;durP2;ratioP2
41446;SDS011;27185;52.040;4.490;2023-02-24T00:02:19;10.80;;;2.15;;
41446;SDS011;27185;52.040;4.490;2023-02-24T00:05:05;9.45;;;1.63;;
41446;SDS011;27185;52.040;4.490;2023-02-24T00:07:51;10.15;;;1.70;;
41446;SDS011;27185;52.040;4.490;2023-02-24T00:10:36;8.88;;;1.75;;
41446;SDS011;27185;52.040;4.490;2023-02-24T00:13:22;13.48;;;1.52;;
41446;SDS011;27185;52.040;4.490;2023-02-24T00:16:08;11.75;;;1.95;;
41446;SDS011;27185;52.040;4.490;2023-02-24T00:18:53;16.67;;;2.10;;
41446;SDS011;27185;52.040;4.490;2023-02-24T00:21:39;12.20;;;2.30;;
41446;SDS011;27185;52.040;4.490;2023-02-24T00:24:25;12.55;;;2.00;;
41446;SDS011;27185;52.040;4.490;2023-02-24T00:27:11;12.00;;;1.60;;
41446;SDS011;27185;52.040;4.490;2023-02-24T00:29:56;12.73;;;1.65;;
41446;SDS011;27185;52.040;4.490;2023-02-24T00:32:42;11.90;;;2.03;;
41446;SDS011;27185;52.040;4.490;2023-02-24T00:35:28;11.88;;;1.73;;
41446;SDS011;27185;52.040;4.490;2023-02-24T00:38:15;10.27;;;1.48;;
41446;SDS011;27185;52.040;4.490;2023-02-24T00:41:11;10.32;;;1.80;;
41446;SDS011;27185;52.040;4.490;2023-02-24T00:44:03;8.82;;;1.50;;
41446;SDS011;27185;52.040;4.490;2023-02-24T00:46:51;11.25;;;1.65;;
41446;SDS011;27185;52.040;4.490;2023-02-24T00:49:38;9.30;;;1.52;;
41446;SDS011;27185;52.040;4.490;2023-02-24T00:52:27;8.98;;;1.40;;
41446;SDS011;27185;52.040;4.490;2023-02-24T00:55:13;9.50;;;1.00;;
41446;SDS011;27185;52.040;4.490;2023-02-24T00:57:59;8.52;;;1.20;;
41446;SDS011;27185;52.040;4.490;2023-02-24T01:00:44;6.38;;;1.00;;
41446;SDS011;27185;52.040;4.490;2023-02-24T01:03:31;7.50;;;1.20;;
41446;SDS011;27185;52.040;4.490;2023-02-24T01:06:17;9.68;;;2.00;;
41446;SDS011;27185;52.040;4.490;2023-02-24T01:09:04;7.45;;;1.30;;
41446;SDS011;27185;52.040;4.490;2023-02-24T01:11:52;10.63;;;1.45;;
41446;SDS011;27185;52.040;4.490;2023-02-24T01:14:57;7.57;;;1.05;;
41446;SDS011;27185;52.040;4.490;2023-02-24T01:17:42;8.55;;;1.15;;
41446;SDS011;27185;52.040;4.490;2023-02-24T01:20:28;5.18;;;1.30;;
41446;SDS011;27185;52.040;4.490;2023-02-24T01:23:14;5.30;;;1.17;;
41446;SDS011;27185;52.040;4.490;2023-02-24T01:26:01;9.43;;;1.02;;
41446;SDS011;27185;52.040;4.490;2023-02-24T01:28:47;8.82;;;1.20;;
41446;SDS011;27185;52.040;4.490;2023-02-24T01:31:34;11.10;;;1.02;;
41446;SDS011;27185;52.040;4.490;2023-02-24T01:34:22;11.50;;;1.20;;
41446;SDS011;27185;52.040;4.490;2023-02-24T01:37:08;6.28;;;0.98;;
41446;SDS011;27185;52.040;4.490;2023-02-24T01:39:54;7.65;;;1.38;;
41446;SDS011;27185;52.040;4.490;2023-02-24T01:42:40;8.52;;;1.58;;
41446;SDS011;27185;52.040;4.490;2023-02-24T01:45:26;6.82;;;1.13;;
41446;SDS011;27185;52.040;4.490;2023-02-24T01:48:13;15.55;;;1.30;;
41446;SDS011;27185;52.040;4.490;2023-02-24T01:51:01;11.35;;;1.10;;
41446;SDS011;27185;52.040;4.490;2023-02-24T01:53:47;6.78;;;0.90;;
41446;SDS011;27185;52.040;4.490;2023-02-24T01:56:33;5.38;;;0.98;;
41446;SDS011;27185;52.040;4.490;2023-02-24T01:59:19;10.45;;;1.20;;
41446;SDS011;27185;52.040;4.490;2023-02-24T02:02:07;9.32;;;1.70;;
41446;SDS011;27185;52.040;4.490;2023-02-24T02:04:54;6.75;;;1.02;;
41446;SDS011;27185;52.040;4.490;2023-02-24T02:07:48;4.03;;;0.80;;
41446;SDS011;27185;52.040;4.490;2023-02-24T02:10:34;8.25;;;1.00;;
41446;SDS011;27185;52.040;4.490;2023-02-24T02:13:24;7.40;;;0.85;;
41446;SDS011;27185;52.040;4.490;2023-02-24T02:25:12;7.25;;;0.90;;
41446;SDS011;27185;52.040;4.490;2023-02-24T02:31:11;9.98;;;0.90;;
41446;SDS011;27185;52.040;4.490;2023-02-24T02:34:06;6.80;;;1.00;;
41446;SDS011;27185;52.040;4.490;2023-02-24T02:40:18;4.35;;;0.65;;
41446;SDS011;27185;52.040;4.490;2023-02-24T02:43:17;11.63;;;1.20;;
41446;SDS011;27185;52.040;4.490;2023-02-24T02:46:21;7.32;;;0.90;;
41446;SDS011;27185;52.040;4.490;2023-02-24T02:49:20;14.93;;;1.45;;
41446;SDS011;27185;52.040;4.490;2023-02-24T02:52:21;5.70;;;0.80;;
41446;SDS011;27185;52.040;4.490;2023-02-24T02:58:36;10.70;;;1.10;;
41446;SDS011;27185;52.040;4.490;2023-02-24T03:01:27;8.68;;;1.00;;
41446;SDS011;27185;52.040;4.490;2023-02-24T03:04:16;8.18;;;0.80;;
41446;SDS011;27185;52.040;4.490;2023-02-24T03:07:06;11.93;;;1.02;;
41446;SDS011;27185;52.040;4.490;2023-02-24T03:09:54;4.70;;;0.73;;
41446;SDS011;27185;52.040;4.490;2023-02-24T03:12:44;11.60;;;2.35;;
41446;SDS011;27185;52.040;4.490;2023-02-24T03:15:35;3.25;;;0.70;;
41446;SDS011;27185;52.040;4.490;2023-02-24T03:18:27;6.00;;;0.77;;
41446;SDS011;27185;52.040;4.490;2023-02-24T03:21:17;8.35;;;0.90;;
41446;SDS011;27185;52.040;4.490;2023-02-24T03:24:09;6.65;;;0.70;;
41446;SDS011;27185;52.040;4.490;2023-02-24T03:26:58;5.15;;;0.93;;
41446;SDS011;27185;52.040;4.490;2023-02-24T03:29:51;11.02;;;0.75;;
41446;SDS011;27185;52.040;4.490;2023-02-24T03:32:50;6.50;;;0.80;;
41446;SDS011;27185;52.040;4.490;2023-02-24T03:35:40;5.03;;;0.75;;
41446;SDS011;27185;52.040;4.490;2023-02-24T03:38:27;5.82;;;0.85;;
41446;SDS011;27185;52.040;4.490;2023-02-24T03:41:16;6.45;;;1.13;;
41446;SDS011;27185;52.040;4.490;2023-02-24T03:44:02;5.53;;;0.70;;
41446;SDS011;27185;52.040;4.490;2023-02-24T03:46:47;5.13;;;0.70;;
41446;SDS011;27185;52.040;4.490;2023-02-24T03:49:33;6.20;;;0.70;;
41446;SDS011;27185;52.040;4.490;2023-02-24T04:07:32;7.43;;;0.93;;
41446;SDS011;27185;52.040;4.490;2023-02-24T04:10:33;6.90;;;0.63;;
41446;SDS011;27185;52.040;4.490;2023-02-24T04:16:29;3.70;;;0.60;;
41446;SDS011;27185;52.040;4.490;2023-02-24T04:19:26;4.57;;;0.40;;
41446;SDS011;27185;52.040;4.490;2023-02-24T04:22:16;4.15;;;0.45;;
41446;SDS011;27185;52.040;4.490;2023-02-24T04:25:08;3.10;;;0.60;;
41446;SDS011;27185;52.040;4.490;2023-02-24T04:27:57;5.13;;;0.60;;
41446;SDS011;27185;52.040;4.490;2023-02-24T04:30:46;4.85;;;0.52;;
41446;SDS011;27185;52.040;4.490;2023-02-24T04:33:35;6.65;;;0.70;;
41446;SDS011;27185;52.040;4.490;2023-02-24T04:36:22;2.47;;;0.60;;
41446;SDS011;27185;52.040;4.490;2023-02-24T04:39:08;6.85;;;0.70;;
41446;SDS011;27185;52.040;4.490;2023-02-24T04:41:55;4.82;;;0.50;;
41446;SDS011;27185;52.040;4.490;2023-02-24T04:44:41;11.30;;;0.60;;
41446;SDS011;27185;52.040;4.490;2023-02-24T04:47:29;5.68;;;0.50;;
41446;SDS011;27185;52.040;4.490;2023-02-24T04:50:15;6.30;;;0.50;;
41446;SDS011;27185;52.040;4.490;2023-02-24T04:53:12;5.88;;;0.40;;
41446;SDS011;27185;52.040;4.490;2023-02-24T04:56:03;4.93;;;0.50;;
41446;SDS011;27185;52.040;4.490;2023-02-24T04:58:52;8.45;;;1.55;;
41446;SDS011;27185;52.040;4.490;2023-02-24T05:01:41;6.57;;;0.88;;
41446;SDS011;27185;52.040;4.490;2023-02-24T05:04:28;5.30;;;0.90;;
41446;SDS011;27185;52.040;4.490;2023-02-24T05:07:16;5.93;;;0.88;;
41446;SDS011;27185;52.040;4.490;2023-02-24T05:10:02;6.95;;;1.00;;
41446;SDS011;27185;52.040;4.490;2023-02-24T05:12:48;12.40;;;1.38;;
41446;SDS011;27185;52.040;4.490;2023-02-24T05:15:34;6.03;;;0.95;;
41446;SDS011;27185;52.040;4.490;2023-02-24T05:18:24;6.57;;;1.00;;
41446;SDS011;27185;52.040;4.490;2023-02-24T05:21:13;5.78;;;1.00;;
41446;SDS011;27185;52.040;4.490;2023-02-24T05:24:19;7.25;;;1.20;;
41446;SDS011;27185;52.040;4.490;2023-02-24T05:27:04;7.57;;;1.10;;
41446;SDS011;27185;52.040;4.490;2023-02-24T05:29:50;14.70;;;1.73;;
41446;SDS011;27185;52.040;4.490;2023-02-24T05:32:36;7.30;;;1.77;;
41446;SDS011;27185;52.040;4.490;2023-02-24T05:35:22;7.68;;;1.48;;
41446;SDS011;27185;52.040;4.490;2023-02-24T05:38:08;8.77;;;1.95;;
41446;SDS011;27185;52.040;4.490;2023-02-24T05:40:54;10.77;;;1.92;;
41446;SDS011;27185;52.040;4.490;2023-02-24T05:43:49;6.32;;;1.40;;
41446;SDS011;27185;52.040;4.490;2023-02-24T05:46:39;10.02;;;1.67;;
41446;SDS011;27185;52.040;4.490;2023-02-24T05:49:29;14.38;;;2.13;;
41446;SDS011;27185;52.040;4.490;2023-02-24T05:52:17;10.10;;;1.52;;
41446;SDS011;27185;52.040;4.490;2023-02-24T05:55:04;11.52;;;1.60;;
41446;SDS011;27185;52.040;4.490;2023-02-24T05:57:51;12.75;;;1.85;;
41446;SDS011;27185;52.040;4.490;2023-02-24T06:00:37;10.15;;;1.92;;
41446;SDS011;27185;52.040;4.490;2023-02-24T06:03:23;10.50;;;1.70;;
41446;SDS011;27185;52.040;4.490;2023-02-24T06:06:15;12.95;;;2.03;;
41446;SDS011;27185;52.040;4.490;2023-02-24T06:09:05;6.15;;;1.20;;
41446;SDS011;27185;52.040;4.490;2023-02-24T06:11:54;11.95;;;1.10;;
41446;SDS011;27185;52.040;4.490;2023-02-24T06:14:40;10.48;;;1.70;;
41446;SDS011;27185;52.040;4.490;2023-02-24T06:17:26;9.10;;;1.63;;
41446;SDS011;27185;52.040;4.490;2023-02-24T06:20:12;10.52;;;1.58;;
41446;SDS011;27185;52.040;4.490;2023-02-24T06:22:59;11.00;;;1.60;;
41446;SDS011;27185;52.040;4.490;2023-02-24T06:25:45;7.53;;;1.45;;
41446;SDS011;27185;52.040;4.490;2023-02-24T06:28:31;14.85;;;1.85;;
41446;SDS011;27185;52.040;4.490;2023-02-24T06:31:17;10.77;;;1.52;;
41446;SDS011;27185;52.040;4.490;2023-02-24T06:34:05;13.48;;;2.17;;
41446;SDS011;27185;52.040;4.490;2023-02-24T06:36:51;11.38;;;1.40;;
41446;SDS011;27185;52.040;4.490;2023-02-24T06:39:37;7.43;;;1.45;;
41446;SDS011;27185;52.040;4.490;2023-02-24T06:42:23;14.32;;;1.48;;
41446;SDS011;27185;52.040;4.490;2023-02-24T06:45:09;11.45;;;1.50;;
41446;SDS011;27185;52.040;4.490;2023-02-24T06:47:55;16.65;;;1.67;;
41446;SDS011;27185;52.040;4.490;2023-02-24T06:50:41;12.80;;;1.33;;
41446;SDS011;27185;52.040;4.490;2023-02-24T06:53:28;13.55;;;1.60;;
41446;SDS011;27185;52.040;4.490;2023-02-24T06:56:14;13.50;;;2.17;;
41446;SDS011;27185;52.040;4.490;2023-02-24T06:59:03;11.52;;;2.08;;
41446;SDS011;27185;52.040;4.490;2023-02-24T07:01:50;9.55;;;1.65;;
41446;SDS011;27185;52.040;4.490;2023-02-24T07:04:37;11.52;;;1.33;;
41446;SDS011;27185;52.040;4.490;2023-02-24T07:07:32;13.48;;;1.67;;
41446;SDS011;27185;52.040;4.490;2023-02-24T07:10:18;8.98;;;1.08;;
41446;SDS011;27185;52.040;4.490;2023-02-24T07:13:03;9.18;;;1.42;;
41446;SDS011;27185;52.040;4.490;2023-02-24T07:15:50;11.90;;;1.80;;
41446;SDS011;27185;52.040;4.490;2023-02-24T07:18:37;12.50;;;1.80;;
41446;SDS011;27185;52.040;4.490;2023-02-24T07:21:25;19.73;;;1.90;;
41446;SDS011;27185;52.040;4.490;2023-02-24T07:24:14;12.60;;;2.65;;
41446;SDS011;27185;52.040;4.490;2023-02-24T07:27:10;13.68;;;2.33;;
41446;SDS011;27185;52.040;4.490;2023-02-24T07:30:06;14.05;;;2.33;;
41446;SDS011;27185;52.040;4.490;2023-02-24T07:32:54;18.63;;;3.50;;
41446;SDS011;27185;52.040;4.490;2023-02-24T07:35:40;17.85;;;1.98;;
41446;SDS011;27185;52.040;4.490;2023-02-24T07:38:26;16.27;;;2.45;;
41446;SDS011;27185;52.040;4.490;2023-02-24T07:41:12;11.48;;;1.73;;
41446;SDS011;27185;52.040;4.490;2023-02-24T07:43:59;14.73;;;1.83;;
41446;SDS011;27185;52.040;4.490;2023-02-24T07:46:47;12.38;;;2.67;;
41446;SDS011;27185;52.040;4.490;2023-02-24T07:49:33;10.02;;;1.52;;
41446;SDS011;27185;52.040;4.490;2023-02-24T07:52:19;16.42;;;2.47;;
41446;SDS011;27185;52.040;4.490;2023-02-24T07:55:06;14.88;;;2.25;;
41446;SDS011;27185;52.040;4.490;2023-02-24T07:57:53;15.40;;;2.25;;
41446;SDS011;27185;52.040;4.490;2023-02-24T08:00:38;17.90;;;2.55;;
41446;SDS011;27185;52.040;4.490;2023-02-24T08:03:44;13.43;;;2.55;;
41446;SDS011;27185;52.040;4.490;2023-02-24T08:06:31;16.48;;;2.58;;
41446;SDS011;27185;52.040;4.490;2023-02-24T08:09:23;10.38;;;2.30;;
41446;SDS011;27185;52.040;4.490;2023-02-24T08:12:28;13.23;;;3.10;;
41446;SDS011;27185;52.040;4.490;2023-02-24T08:15:14;14.90;;;2.60;;
41446;SDS011;27185;52.040;4.490;2023-02-24T08:18:07;13.70;;;2.38;;
41446;SDS011;27185;52.040;4.490;2023-02-24T08:20:53;17.15;;;2.22;;
41446;SDS011;27185;52.040;4.490;2023-02-24T08:23:48;11.70;;;1.95;;
41446;SDS011;27185;52.040;4.490;2023-02-24T08:26:34;19.38;;;2.05;;
41446;SDS011;27185;52.040;4.490;2023-02-24T08:29:32;15.60;;;2.42;;
41446;SDS011;27185;52.040;4.490;2023-02-24T08:32:42;19.63;;;2.63;;
41446;SDS011;27185;52.040;4.490;2023-02-24T08:35:29;18.63;;;2.10;;
41446;SDS011;27185;52.040;4.490;2023-02-24T08:38:20;14.27;;;2.60;;
41446;SDS011;27185;52.040;4.490;2023-02-24T08:41:11;16.07;;;2.80;;
41446;SDS011;27185;52.040;4.490;2023-02-24T08:44:01;15.38;;;2.08;;
41446;SDS011;27185;52.040;4.490;2023-02-24T08:46:47;15.63;;;2.03;;
41446;SDS011;27185;52.040;4.490;2023-02-24T08:49:36;15.07;;;2.08;;
41446;SDS011;27185;52.040;4.490;2023-02-24T08:52:23;16.63;;;2.10;;
41446;SDS011;27185;52.040;4.490;2023-02-24T08:55:08;14.65;;;1.83;;
41446;SDS011;27185;52.040;4.490;2023-02-24T08:57:55;13.60;;;1.85;;
41446;SDS011;27185;52.040;4.490;2023-02-24T09:00:45;16.02;;;1.63;;
41446;SDS011;27185;52.040;4.490;2023-02-24T09:03:34;16.98;;;2.17;;
41446;SDS011;27185;52.040;4.490;2023-02-24T09:06:22;16.08;;;2.33;;
41446;SDS011;27185;52.040;4.490;2023-02-24T09:09:19;17.80;;;2.92;;
41446;SDS011;27185;52.040;4.490;2023-02-24T09:12:05;16.38;;;2.58;;
41446;SDS011;27185;52.040;4.490;2023-02-24T09:14:56;15.85;;;2.00;;
41446;SDS011;27185;52.040;4.490;2023-02-24T09:17:48;15.77;;;1.98;;
41446;SDS011;27185;52.040;4.490;2023-02-24T09:20:34;20.92;;;3.13;;
41446;SDS011;27185;52.040;4.490;2023-02-24T09:23:40;13.90;;;2.13;;
41446;SDS011;27185;52.040;4.490;2023-02-24T09:26:32;17.65;;;2.42;;
41446;SDS011;27185;52.040;4.490;2023-02-24T09:29:27;13.77;;;2.63;;
41446;SDS011;27185;52.040;4.490;2023-02-24T09:32:18;16.95;;;3.53;;
41446;SDS011;27185;52.040;4.490;2023-02-24T09:35:04;13.57;;;1.98;;
41446;SDS011;27185;52.040;4.490;2023-02-24T09:37:49;15.60;;;2.20;;
41446;SDS011;27185;52.040;4.490;2023-02-24T09:40:39;14.32;;;2.72;;
41446;SDS011;27185;52.040;4.490;2023-02-24T09:43:32;10.95;;;2.63;;
41446;SDS011;27185;52.040;4.490;2023-02-24T09:46:30;14.00;;;2.90;;
41446;SDS011;27185;52.040;4.490;2023-02-24T09:49:21;19.80;;;3.30;;
41446;SDS011;27185;52.040;4.490;2023-02-24T09:52:24;19.70;;;4.57;;
41446;SDS011;27185;52.040;4.490;2023-02-24T09:55:39;14.10;;;4.32;;
41446;SDS011;27185;52.040;4.490;2023-02-24T10:07:17;13.70;;;6.57;;
41446;SDS011;27185;52.040;4.490;2023-02-24T10:10:26;15.25;;;6.97;;
41446;SDS011;27185;52.040;4.490;2023-02-24T10:13:20;15.90;;;7.28;;
41446;SDS011;27185;52.040;4.490;2023-02-24T10:16:15;15.65;;;7.63;;
41446;SDS011;27185;52.040;4.490;2023-02-24T10:19:14;15.05;;;7.15;;
41446;SDS011;27185;52.040;4.490;2023-02-24T10:22:19;20.20;;;9.25;;
41446;SDS011;27185;52.040;4.490;2023-02-24T10:31:09;19.40;;;9.40;;
41446;SDS011;27185;52.040;4.490;2023-02-24T10:34:14;19.58;;;8.85;;
41446;SDS011;27185;52.040;4.490;2023-02-24T10:37:11;16.40;;;9.80;;
41446;SDS011;27185;52.040;4.490;2023-02-24T10:40:04;15.52;;;9.68;;
41446;SDS011;27185;52.040;4.490;2023-02-24T10:43:06;17.50;;;9.85;;
41446;SDS011;27185;52.040;4.490;2023-02-24T10:45:55;13.15;;;9.00;;
41446;SDS011;27185;52.040;4.490;2023-02-24T10:48:51;15.95;;;8.95;;
41446;SDS011;27185;52.040;4.490;2023-02-24T10:51:50;15.82;;;10.20;;
41446;SDS011;27185;52.040;4.490;2023-02-24T10:54:37;16.05;;;8.65;;
41446;SDS011;27185;52.040;4.490;2023-02-24T10:57:48;15.65;;;10.45;;
41446;SDS011;27185;52.040;4.490;2023-02-24T11:00:40;16.67;;;9.60;;
41446;SDS011;27185;52.040;4.490;2023-02-24T11:03:54;16.20;;;10.38;;
41446;SDS011;27185;52.040;4.490;2023-02-24T11:06:45;14.48;;;8.88;;
41446;SDS011;27185;52.040;4.490;2023-02-24T11:09:37;15.23;;;9.35;;
41446;SDS011;27185;52.040;4.490;2023-02-24T11:12:37;14.95;;;9.88;;
41446;SDS011;27185;52.040;4.490;2023-02-24T11:15:50;12.77;;;9.30;;
41446;SDS011;27185;52.040;4.490;2023-02-24T11:18:57;14.55;;;8.82;;
41446;SDS011;27185;52.040;4.490;2023-02-24T11:21:43;17.00;;;9.60;;
41446;SDS011;27185;52.040;4.490;2023-02-24T11:24:28;15.80;;;9.38;;
41446;SDS011;27185;52.040;4.490;2023-02-24T11:27:14;13.65;;;7.28;;
41446;SDS011;27185;52.040;4.490;2023-02-24T11:30:29;11.38;;;5.07;;
41446;SDS011;27185;52.040;4.490;2023-02-24T11:33:39;8.90;;;3.92;;
41446;SDS011;27185;52.040;4.490;2023-02-24T11:40:23;11.65;;;7.47;;
41446;SDS011;27185;52.040;4.490;2023-02-24T11:43:12;12.68;;;7.15;;
41446;SDS011;27185;52.040;4.490;2023-02-24T11:46:09;14.60;;;7.35;;
41446;SDS011;27185;52.040;4.490;2023-02-24T11:49:00;16.30;;;7.20;;
41446;SDS011;27185;52.040;4.490;2023-02-24T11:51:53;18.25;;;6.82;;
41446;SDS011;27185;52.040;4.490;2023-02-24T11:54:42;18.77;;;6.43;;
41446;SDS011;27185;52.040;4.490;2023-02-24T11:57:35;24.80;;;7.55;;
41446;SDS011;27185;52.040;4.490;2023-02-24T12:00:27;22.38;;;7.75;;
41446;SDS011;27185;52.040;4.490;2023-02-24T12:03:26;22.20;;;6.93;;
41446;SDS011;27185;52.040;4.490;2023-02-24T12:06:33;20.10;;;7.53;;
41446;SDS011;27185;52.040;4.490;2023-02-24T12:09:22;22.65;;;6.03;;
41446;SDS011;27185;52.040;4.490;2023-02-24T12:12:16;19.58;;;6.43;;
41446;SDS011;27185;52.040;4.490;2023-02-24T12:15:09;28.42;;;7.25;;
41446;SDS011;27185;52.040;4.490;2023-02-24T12:21:35;27.23;;;5.55;;
41446;SDS011;27185;52.040;4.490;2023-02-24T12:24:31;18.33;;;3.17;;
41446;SDS011;27185;52.040;4.490;2023-02-24T12:42:47;26.05;;;2.38;;
41446;SDS011;27185;52.040;4.490;2023-02-24T12:46:04;13.65;;;2.80;;
41446;SDS011;27185;52.040;4.490;2023-02-24T12:52:23;21.40;;;3.13;;
41446;SDS011;27185;52.040;4.490;2023-02-24T12:58:24;18.92;;;3.60;;
41446;SDS011;27185;52.040;4.490;2023-02-24T13:01:19;18.33;;;2.67;;
41446;SDS011;27185;52.040;4.490;2023-02-24T13:07:10;22.17;;;3.85;;
41446;SDS011;27185;52.040;4.490;2023-02-24T13:10:19;28.30;;;4.85;;
41446;SDS011;27185;52.040;4.490;2023-02-24T13:13:13;27.75;;;4.03;;
41446;SDS011;27185;52.040;4.490;2023-02-24T13:16:10;26.15;;;3.60;;
41446;SDS011;27185;52.040;4.490;2023-02-24T13:19:03;28.15;;;4.25;;
41446;SDS011;27185;52.040;4.490;2023-02-24T13:22:00;23.80;;;3.47;;
41446;SDS011;27185;52.040;4.490;2023-02-24T13:27:55;28.48;;;3.65;;
41446;SDS011;27185;52.040;4.490;2023-02-24T13:30:44;24.98;;;3.72;;
41446;SDS011;27185;52.040;4.490;2023-02-24T13:33:37;21.83;;;3.25;;
41446;SDS011;27185;52.040;4.490;2023-02-24T13:36:24;38.70;;;6.03;;
41446;SDS011;27185;52.040;4.490;2023-02-24T13:39:23;21.90;;;3.58;;
41446;SDS011;27185;52.040;4.490;2023-02-24T13:54:12;21.65;;;3.22;;
41446;SDS011;27185;52.040;4.490;2023-02-24T13:57:34;22.90;;;3.35;;
41446;SDS011;27185;52.040;4.490;2023-02-24T14:01:00;15.82;;;2.17;;
41446;SDS011;27185;52.040;4.490;2023-02-24T14:07:04;11.93;;;1.65;;
41446;SDS011;27185;52.040;4.490;2023-02-24T14:09:55;11.77;;;1.48;;
41446;SDS011;27185;52.040;4.490;2023-02-24T14:12:45;14.48;;;1.77;;
41446;SDS011;27185;52.040;4.490;2023-02-24T14:15:32;19.33;;;2.38;;
41446;SDS011;27185;52.040;4.490;2023-02-24T14:18:20;17.73;;;1.63;;
41446;SDS011;27185;52.040;4.490;2023-02-24T14:21:16;12.52;;;1.75;;
41446;SDS011;27185;52.040;4.490;2023-02-24T14:24:12;17.27;;;1.90;;
41446;SDS011;27185;52.040;4.490;2023-02-24T14:26:58;14.57;;;2.45;;
41446;SDS011;27185;52.040;4.490;2023-02-24T14:29:45;15.68;;;2.28;;
41446;SDS011;27185;52.040;4.490;2023-02-24T14:32:31;12.43;;;1.88;;
41446;SDS011;27185;52.040;4.490;2023-02-24T14:38:36;14.00;;;2.03;;
41446;SDS011;27185;52.040;4.490;2023-02-24T14:41:25;13.38;;;1.85;;
41446;SDS011;27185;52.040;4.490;2023-02-24T14:44:16;6.45;;;1.73;;
41446;SDS011;27185;52.040;4.490;2023-02-24T14:47:07;9.68;;;1.42;;
41446;SDS011;27185;52.040;4.490;2023-02-24T14:49:59;7.18;;;0.80;;
41446;SDS011;27185;52.040;4.490;2023-02-24T14:52:47;9.32;;;1.10;;
41446;SDS011;27185;52.040;4.490;2023-02-24T14:55:38;8.73;;;0.90;;
41446;SDS011;27185;52.040;4.490;2023-02-24T15:01:32;7.00;;;0.88;;
41446;SDS011;27185;52.040;4.490;2023-02-24T15:07:25;13.80;;;1.40;;
41446;SDS011;27185;52.040;4.490;2023-02-24T15:10:24;13.02;;;1.48;;
41446;SDS011;27185;52.040;4.490;2023-02-24T15:13:15;7.15;;;1.10;;
41446;SDS011;27185;52.040;4.490;2023-02-24T15:19:20;8.75;;;0.77;;
41446;SDS011;27185;52.040;4.490;2023-02-24T15:22:28;7.95;;;1.25;;
41446;SDS011;27185;52.040;4.490;2023-02-24T15:25:18;7.43;;;1.05;;
41446;SDS011;27185;52.040;4.490;2023-02-24T15:28:22;4.28;;;0.77;;
41446;SDS011;27185;52.040;4.490;2023-02-24T15:31:15;13.25;;;0.93;;
41446;SDS011;27185;52.040;4.490;2023-02-24T15:34:03;9.88;;;1.83;;
41446;SDS011;27185;52.040;4.490;2023-02-24T15:36:49;4.88;;;0.80;;
41446;SDS011;27185;52.040;4.490;2023-02-24T15:39:40;6.53;;;0.90;;
41446;SDS011;27185;52.040;4.490;2023-02-24T15:42:29;10.02;;;1.20;;
41446;SDS011;27185;52.040;4.490;2023-02-24T15:54:33;11.57;;;0.95;;
41446;SDS011;27185;52.040;4.490;2023-02-24T15:57:20;8.80;;;0.90;;
41446;SDS011;27185;52.040;4.490;2023-02-24T16:00:06;9.15;;;1.23;;
41446;SDS011;27185;52.040;4.490;2023-02-24T16:02:58;11.45;;;1.27;;
41446;SDS011;27185;52.040;4.490;2023-02-24T16:05:44;8.25;;;0.98;;
41446;SDS011;27185;52.040;4.490;2023-02-24T16:08:30;11.65;;;1.38;;
41446;SDS011;27185;52.040;4.490;2023-02-24T16:11:18;9.68;;;1.20;;
41446;SDS011;27185;52.040;4.490;2023-02-24T16:14:07;10.65;;;1.00;;
41446;SDS011;27185;52.040;4.490;2023-02-24T16:16:58;8.00;;;1.20;;
41446;SDS011;27185;52.040;4.490;2023-02-24T16:19:48;18.20;;;1.90;;
41446;SDS011;27185;52.040;4.490;2023-02-24T16:22:34;15.13;;;1.08;;
41446;SDS011;27185;52.040;4.490;2023-02-24T16:25:20;17.55;;;1.30;;
41446;SDS011;27185;52.040;4.490;2023-02-24T16:28:09;8.57;;;1.10;;
41446;SDS011;27185;52.040;4.490;2023-02-24T16:31:01;13.10;;;1.35;;
41446;SDS011;27185;52.040;4.490;2023-02-24T16:33:47;10.30;;;1.15;;
41446;SDS011;27185;52.040;4.490;2023-02-24T16:36:32;5.13;;;0.93;;
41446;SDS011;27185;52.040;4.490;2023-02-24T16:39:19;18.13;;;1.15;;
41446;SDS011;27185;52.040;4.490;2023-02-24T16:42:05;8.20;;;0.82;;
41446;SDS011;27185;52.040;4.490;2023-02-24T16:44:51;6.03;;;1.00;;
41446;SDS011;27185;52.040;4.490;2023-02-24T16:47:36;10.25;;;1.27;;
41446;SDS011;27185;52.040;4.490;2023-02-24T16:50:28;5.65;;;0.70;;
41446;SDS011;27185;52.040;4.490;2023-02-24T16:53:21;8.45;;;0.60;;
41446;SDS011;27185;52.040;4.490;2023-02-24T16:56:07;8.13;;;1.00;;
41446;SDS011;27185;52.040;4.490;2023-02-24T16:58:53;12.18;;;0.85;;
41446;SDS011;27185;52.040;4.490;2023-02-24T17:01:39;9.82;;;1.52;;
41446;SDS011;27185;52.040;4.490;2023-02-24T17:04:24;10.32;;;1.13;;
41446;SDS011;27185;52.040;4.490;2023-02-24T17:07:10;8.85;;;1.67;;
41446;SDS011;27185;52.040;4.490;2023-02-24T17:09:56;16.98;;;1.73;;
41446;SDS011;27185;52.040;4.490;2023-02-24T17:12:41;16.38;;;1.60;;
41446;SDS011;27185;52.040;4.490;2023-02-24T17:15:27;17.80;;;2.42;;
41446;SDS011;27185;52.040;4.490;2023-02-24T17:18:13;13.38;;;1.85;;
41446;SDS011;27185;52.040;4.490;2023-02-24T17:20:59;16.13;;;1.90;;
41446;SDS011;27185;52.040;4.490;2023-02-24T17:23:44;11.98;;;1.85;;
41446;SDS011;27185;52.040;4.490;2023-02-24T17:26:30;21.15;;;2.20;;
41446;SDS011;27185;52.040;4.490;2023-02-24T17:29:15;9.50;;;2.20;;
41446;SDS011;27185;52.040;4.490;2023-02-24T17:32:01;14.52;;;2.17;;
41446;SDS011;27185;52.040;4.490;2023-02-24T17:34:47;14.65;;;2.25;;
41446;SDS011;27185;52.040;4.490;2023-02-24T17:37:32;14.50;;;2.50;;
41446;SDS011;27185;52.040;4.490;2023-02-24T17:40:18;12.15;;;1.58;;
41446;SDS011;27185;52.040;4.490;2023-02-24T17:43:04;19.05;;;2.05;;
41446;SDS011;27185;52.040;4.490;2023-02-24T17:45:50;14.75;;;2.25;;
41446;SDS011;27185;52.040;4.490;2023-02-24T17:48:36;16.58;;;2.03;;
41446;SDS011;27185;52.040;4.490;2023-02-24T17:51:22;9.88;;;1.38;;
41446;SDS011;27185;52.040;4.490;2023-02-24T17:54:08;10.32;;;1.10;;
41446;SDS011;27185;52.040;4.490;2023-02-24T17:56:53;13.82;;;1.25;;
41446;SDS011;27185;52.040;4.490;2023-02-24T17:59:41;13.35;;;1.23;;
41446;SDS011;27185;52.040;4.490;2023-02-24T18:02:29;8.35;;;1.20;;
41446;SDS011;27185;52.040;4.490;2023-02-24T18:05:15;12.50;;;1.17;;
41446;SDS011;27185;52.040;4.490;2023-02-24T18:08:01;11.63;;;1.15;;
41446;SDS011;27185;52.040;4.490;2023-02-24T18:10:46;12.88;;;1.48;;
41446;SDS011;27185;52.040;4.490;2023-02-24T18:13:32;10.23;;;1.55;;
41446;SDS011;27185;52.040;4.490;2023-02-24T18:16:18;19.25;;;1.90;;
41446;SDS011;27185;52.040;4.490;2023-02-24T18:19:03;10.68;;;1.50;;
41446;SDS011;27185;52.040;4.490;2023-02-24T18:21:49;18.27;;;2.75;;
41446;SDS011;27185;52.040;4.490;2023-02-24T18:24:35;12.13;;;1.67;;
41446;SDS011;27185;52.040;4.490;2023-02-24T18:27:23;20.05;;;2.03;;
41446;SDS011;27185;52.040;4.490;2023-02-24T18:30:08;17.33;;;2.10;;
41446;SDS011;27185;52.040;4.490;2023-02-24T18:32:55;10.95;;;1.23;;
41446;SDS011;27185;52.040;4.490;2023-02-24T18:35:41;14.45;;;2.17;;
41446;SDS011;27185;52.040;4.490;2023-02-24T18:38:27;14.80;;;2.00;;
41446;SDS011;27185;52.040;4.490;2023-02-24T18:41:14;9.35;;;1.70;;
41446;SDS011;27185;52.040;4.490;2023-02-24T18:44:02;14.60;;;2.33;;
41446;SDS011;27185;52.040;4.490;2023-02-24T18:46:48;19.92;;;3.08;;
41446;SDS011;27185;52.040;4.490;2023-02-24T18:49:34;15.77;;;2.60;;
41446;SDS011;27185;52.040;4.490;2023-02-24T18:52:20;25.20;;;2.85;;
41446;SDS011;27185;52.040;4.490;2023-02-24T18:55:06;25.13;;;3.70;;
41446;SDS011;27185;52.040;4.490;2023-02-24T18:57:52;21.25;;;3.13;;
41446;SDS011;27185;52.040;4.490;2023-02-24T19:00:38;21.75;;;2.88;;